Time;durP1;ratioP1;P1;durP2;ratioP2;P2;SDS_P1;SDS_P2;PMS_P1;PMS_P2;Temp;Humidity;BMP_temperature;BMP_pressure;BME280_temperature;BME280_humidity;BME280_pressure;Samples;Min_cycle;Max_cycle;Signal;HPM_P1;HPM_P2
2023/12/03 00:06:00;;;;;;;;;;;;;;;-1.77;100.00;101454.34;6185194;23;20318;-78
2023/12/03 00:18:18;;;;;;;;;;;;;;;-1.77;100.00;101462.25;6192134;23;19908;-78
2023/12/03 01:01:55;;;;;;;;;;;;;;;-1.63;100.00;101463.97;6244510;23;20390;-78
2023/12/03 01:19:18;;;;;;;;;;;;;;;-1.71;100.00;101488.22;6224627;23;19927;-77
2023/12/03 01:25:19;;;;;;;;;;;;;;;-1.64;100.00;101490.47;6130433;23;19923;-78
2023/12/03 01:34:25;;;;;;;;;;;;;;;-2.00;100.00;101495.41;6124507;23;19920;-79
2023/12/03 01:36:56;;;;;;;;;;;;;;;-2.03;100.00;101501.72;6122672;23;19939;-77
2023/12/03 01:39:55;;;;;;;;;;;;;;;-1.89;100.00;101492.94;6099001;23;19956;-77
2023/12/03 01:45:16;;;;;;;;;;;;;;;-1.91;100.00;101493.97;6172960;23;20260;-77
2023/12/03 01:47:50;;;;;;;;;;;;;;;-1.94;100.00;101496.81;6218944;23;19942;-75
2023/12/03 01:50:15;;;;;;;;;;;;;;;-1.99;100.00;101503.22;6218269;23;20324;-77
2023/12/03 01:52:50;;;;;;;;;;;;;;;-1.86;100.00;101505.06;6221249;23;19991;-77
2023/12/03 01:55:59;;;;;;;;;;;;;;;-1.86;100.00;101513.00;6190695;23;20860;-77
2023/12/03 01:59:18;;;;;;;;;;;;;;;-1.91;100.00;101521.22;6220216;23;19916;-77
2023/12/03 02:01:43;;;;;;;;;;;;;;;-1.90;100.00;101517.63;6128896;23;19952;-77
2023/12/03 02:04:17;;;;;;;;;;;;;;;-1.92;100.00;101523.94;6131299;23;19913;-77
2023/12/03 02:06:58;;;;;;;;;;;;;;;-1.92;100.00;101532.72;6127527;23;20235;-77
2023/12/03 02:10:11;;;;;;;;;;;;;;;-1.92;100.00;101530.06;6132047;23;20005;-77
2023/12/03 02:15:20;;;;;;;;;;;;;;;-1.85;100.00;101538.44;6173465;23;19939;-77
2023/12/03 02:17:52;;;;;;;;;;;;;;;-1.91;100.00;101537.03;6190941;23;19908;-77
2023/12/03 02:20:33;;;;;;;;;;;;;;;-1.87;100.00;101537.69;6189375;23;20300;-77
2023/12/03 02:23:08;;;;;;;;;;;;;;;-1.87;100.00;101542.97;6166284;23;19942;-75
2023/12/03 02:25:50;;;;;;;;;;;;;;;-1.86;100.00;101534.97;6184873;23;20291;-75
2023/12/03 02:31:00;;;;;;;;;;;;;;;-1.89;100.00;101539.56;6198389;23;19923;-75
2023/12/03 02:33:26;;;;;;;;;;;;;;;-1.83;100.00;101533.91;6184897;23;19912;-75
2023/12/03 02:35:58;;;;;;;;;;;;;;;-1.85;100.00;101541.91;6185472;23;19993;-75
2023/12/03 02:38:23;;;;;;;;;;;;;;;-1.81;100.00;101537.28;6185685;23;19939;-76
2023/12/03 02:40:52;;;;;;;;;;;;;;;-1.62;100.00;101541.38;6187046;23;20310;-76
2023/12/03 02:43:23;;;;;;;;;;;;;;;-1.70;100.00;101533.97;6187618;23;19912;-76
2023/12/03 02:45:55;;;;;;;;;;;;;;;-1.67;100.00;101544.31;6186597;23;19919;-76
2023/12/03 02:48:29;;;;;;;;;;;;;;;-1.77;100.00;101543.22;6186848;23;19966;-76
2023/12/03 02:50:55;;;;;;;;;;;;;;;-1.79;100.00;101545.09;6187246;23;20002;-76
2023/12/03 02:53:29;;;;;;;;;;;;;;;-1.70;100.00;101539.25;6188149;23;19912;-76
2023/12/03 02:56:07;;;;;;;;;;;;;;;-1.73;100.00;101548.19;6185749;23;19912;-76
2023/12/03 02:58:50;;;;;;;;;;;;;;;-1.70;100.00;101542.72;6185645;23;19920;-76
2023/12/03 03:01:21;;;;;;;;;;;;;;;-1.68;100.00;101543.47;6182732;23;19919;-76
2023/12/03 03:03:53;;;;;;;;;;;;;;;-1.81;100.00;101534.66;6194714;23;19916;-76
2023/12/03 03:06:18;;;;;;;;;;;;;;;-1.79;100.00;101535.41;6184699;23;20424;-76
2023/12/03 03:08:51;;;;;;;;;;;;;;;-1.74;100.00;101540.38;6185842;23;19935;-76
2023/12/03 03:11:29;;;;;;;;;;;;;;;-1.71;100.00;101537.56;6185592;23;19916;-76
2023/12/03 03:13:54;;;;;;;;;;;;;;;-1.74;100.00;101546.50;6184540;23;20232;-76
2023/12/03 03:16:22;;;;;;;;;;;;;;;-1.71;100.00;101542.81;6183795;23;20313;-76
2023/12/03 03:18:51;;;;;;;;;;;;;;;-1.65;100.00;101549.50;6185665;23;20391;-76
2023/12/03 03:21:16;;;;;;;;;;;;;;;-1.57;100.00;101542.78;6183948;23;20344;-75
2023/12/03 03:23:51;;;;;;;;;;;;;;;-1.46;100.00;101535.91;6184174;23;19916;-76
2023/12/03 03:26:17;;;;;;;;;;;;;;;-1.55;100.00;101543.53;6185415;23;20214;-77
2023/12/03 03:28:54;;;;;;;;;;;;;;;-1.60;100.00;101548.25;6184458;23;19950;-75
2023/12/03 03:31:20;;;;;;;;;;;;;;;-1.55;100.00;101543.53;6184844;23;20305;-76
2023/12/03 03:33:51;;;;;;;;;;;;;;;-1.58;100.00;101545.50;6186007;23;19912;-76
2023/12/03 03:36:16;;;;;;;;;;;;;;;-1.64;100.00;101538.81;6184133;23;20351;-75
2023/12/03 03:38:42;;;;;;;;;;;;;;;-1.42;100.00;101546.22;6186011;23;20345;-75
2023/12/03 03:41:08;;;;;;;;;;;;;;;-1.50;100.00;101551.13;6186228;23;19912;-76
2023/12/03 03:43:33;;;;;;;;;;;;;;;-1.57;100.00;101550.69;6184580;23;19971;-75
2023/12/03 03:45:59;;;;;;;;;;;;;;;-1.60;100.00;101555.34;6185017;23;19970;-75
2023/12/03 03:48:24;;;;;;;;;;;;;;;-1.64;100.00;101549.38;6186492;23;19987;-76
2023/12/03 03:50:49;;;;;;;;;;;;;;;-1.47;100.00;101555.34;6185217;23;19912;-75
2023/12/03 03:53:15;;;;;;;;;;;;;;;-1.42;100.00;101555.91;6185957;23;20008;-75
2023/12/03 03:55:40;;;;;;;;;;;;;;;-1.46;100.00;101552.63;6186982;23;20023;-75
2023/12/03 03:58:05;;;;;;;;;;;;;;;-1.49;100.00;101554.59;6185956;23;19923;-76
2023/12/03 04:00:30;;;;;;;;;;;;;;;-1.42;100.00;101550.63;6187723;23;19944;-76
2023/12/03 04:02:56;;;;;;;;;;;;;;;-1.21;100.00;101558.91;6187683;23;20218;-76
2023/12/03 04:05:58;;;;;;;;;;;;;;;-1.30;100.00;101562.19;6205545;23;19920;-77
2023/12/03 04:11:16;;;;;;;;;;;;;;;-1.28;100.00;101565.56;6186005;23;19927;-77
2023/12/03 04:13:50;;;;;;;;;;;;;;;-1.27;100.00;101561.97;6186293;23;19921;-77
2023/12/03 04:16:22;;;;;;;;;;;;;;;-1.25;100.00;101562.72;6185498;23;19919;-76
2023/12/03 04:18:47;;;;;;;;;;;;;;;-1.22;100.00;101559.84;6185833;23;19919;-77
2023/12/03 04:21:15;;;;;;;;;;;;;;;-1.10;100.00;101568.75;6185622;23;19947;-76
2023/12/03 04:23:40;;;;;;;;;;;;;;;-1.05;100.00;101571.94;6184851;23;20491;-76
2023/12/03 04:26:09;;;;;;;;;;;;;;;-1.17;100.00;101572.78;6185351;23;20356;-77
2023/12/03 04:28:34;;;;;;;;;;;;;;;-1.07;100.00;101580.00;6186482;23;19920;-76
2023/12/03 04:30:59;;;;;;;;;;;;;;;-1.01;100.00;101575.22;6189740;23;19926;-77
2023/12/03 04:33:24;;;;;;;;;;;;;;;-0.91;100.00;101573.69;6193035;23;19916;-77
2023/12/03 04:35:50;;;;;;;;;;;;;;;-0.83;100.00;101581.06;6188550;23;19912;-77
2023/12/03 04:38:15;;;;;;;;;;;;;;;-0.80;100.00;101573.78;6185680;23;19954;-76
2023/12/03 04:40:40;;;;;;;;;;;;;;;-0.88;100.00;101580.53;6185959;23;19912;-77
2023/12/03 04:43:05;;;;;;;;;;;;;;;-0.94;100.00;101576.50;6184831;23;19970;-77
2023/12/03 04:45:31;;;;;;;;;;;;;;;-0.84;100.00;101580.22;6185623;23;19912;-77
2023/12/03 04:47:56;;;;;;;;;;;;;;;-0.78;100.00;101571.88;6186579;23;19963;-76
2023/12/03 04:50:21;;;;;;;;;;;;;;;-0.67;100.00;101570.28;6185157;23;20237;-76
2023/12/03 04:52:47;;;;;;;;;;;;;;;-0.67;100.00;101575.56;6186283;23;19912;-76
2023/12/03 04:55:12;;;;;;;;;;;;;;;-0.86;100.00;101579.47;6185041;23;19919;-76
2023/12/03 04:57:37;;;;;;;;;;;;;;;-0.82;100.00;101578.31;6186269;23;20024;-76
2023/12/03 05:00:07;;;;;;;;;;;;;;;-0.72;100.00;101573.25;6187149;23;19912;-77
2023/12/03 05:02:32;;;;;;;;;;;;;;;-0.64;100.00;101580.66;6191339;23;19912;-76
2023/12/03 05:04:58;;;;;;;;;;;;;;;-0.65;100.00;101579.81;6188257;23;19927;-76
2023/12/03 05:07:23;;;;;;;;;;;;;;;-0.62;100.00;101584.03;6184493;23;19913;-76
2023/12/03 05:09:48;;;;;;;;;;;;;;;-0.59;100.00;101578.53;6185935;23;19927;-77
2023/12/03 05:12:13;;;;;;;;;;;;;;;-0.55;100.00;101585.31;6185634;23;20002;-76
2023/12/03 05:14:39;;;;;;;;;;;;;;;-0.56;100.00;101582.78;6183939;23;19912;-76
2023/12/03 05:17:07;;;;;;;;;;;;;;;-0.57;100.00;101591.66;6185112;23;19943;-76
2023/12/03 05:19:32;;;;;;;;;;;;;;;-0.59;100.00;101583.84;6185542;23;19912;-76
2023/12/03 05:21:57;;;;;;;;;;;;;;;-0.54;100.00;101596.75;6184350;23;20259;-76
2023/12/03 05:24:22;;;;;;;;;;;;;;;-0.68;100.00;101589.75;6187999;23;19940;-76
2023/12/03 05:26:48;;;;;;;;;;;;;;;-0.65;100.00;101595.69;6189275;23;19919;-76
2023/12/03 05:29:14;;;;;;;;;;;;;;;-0.59;100.00;101594.41;6196836;23;19912;-76
2023/12/03 05:31:43;;;;;;;;;;;;;;;-0.64;100.00;101596.53;6201524;23;19919;-76
2023/12/03 05:34:09;;;;;;;;;;;;;;;-0.64;100.00;101600.03;6184989;23;20530;-76
2023/12/03 05:36:34;;;;;;;;;;;;;;;-0.60;100.00;101605.94;6184227;23;19913;-76
2023/12/03 05:38:59;;;;;;;;;;;;;;;-0.60;100.00;101608.59;6185237;23;19912;-76
2023/12/03 05:41:25;;;;;;;;;;;;;;;-0.58;100.00;101603.19;6186230;23;19995;-76
2023/12/03 05:43:52;;;;;;;;;;;;;;;-0.56;100.00;101609.22;6185937;23;19959;-76
2023/12/03 05:46:18;;;;;;;;;;;;;;;-0.63;100.00;101606.16;6186032;23;19922;-76
2023/12/03 05:48:43;;;;;;;;;;;;;;;-0.62;100.00;101608.69;6186918;23;19983;-76
2023/12/03 05:51:09;;;;;;;;;;;;;;;-0.61;100.00;101605.06;6184242;23;20321;-76
2023/12/03 05:53:34;;;;;;;;;;;;;;;-0.63;100.00;101609.66;6186672;23;19942;-76
2023/12/03 05:56:02;;;;;;;;;;;;;;;-0.64;100.00;101609.75;6188042;23;19916;-75
2023/12/03 05:58:28;;;;;;;;;;;;;;;-0.67;100.00;101607.31;6185277;23;19920;-76
2023/12/03 06:00:56;;;;;;;;;;;;;;;-0.71;100.00;101603.19;6185749;23;19912;-76
2023/12/03 06:03:21;;;;;;;;;;;;;;;-0.71;100.00;101611.13;6185436;23;20523;-76
2023/12/03 06:05:46;;;;;;;;;;;;;;;-0.78;100.00;101611.53;6184009;23;19924;-75
2023/12/03 06:08:12;;;;;;;;;;;;;;;-0.80;100.00;101610.78;6185371;23;19912;-75
2023/12/03 06:10:37;;;;;;;;;;;;;;;-0.82;100.00;101610.03;6185323;23;19923;-75
2023/12/03 06:13:02;;;;;;;;;;;;;;;-0.87;100.00;101614.78;6185118;23;20281;-75
2023/12/03 06:15:30;;;;;;;;;;;;;;;-0.87;100.00;101627.16;6185077;23;19912;-79
2023/12/03 06:20:58;;;;;;;;;;;;;;;-0.92;100.00;101627.47;6155509;23;19923;-77
2023/12/03 06:44:35;;;;;;;;;;;;;;;-1.46;100.00;101631.00;6185120;23;19967;-79
2023/12/03 06:47:22;;;;;;;;;;;;;;;-1.63;100.00;101629.44;6184802;23;19916;-79
2023/12/03 06:50:12;;;;;;;;;;;;;;;-1.59;100.00;101633.59;6185423;23;19916;-79
2023/12/03 06:55:55;;;;;;;;;;;;;;;-1.60;100.00;101634.53;6188928;22;19927;-78
2023/12/03 06:58:49;;;;;;;;;;;;;;;-1.53;100.00;101641.09;6185437;23;19912;-77
2023/12/03 07:01:32;;;;;;;;;;;;;;;-1.51;100.00;101644.50;6183365;23;19919;-78
2023/12/03 07:03:58;;;;;;;;;;;;;;;-1.47;100.00;101651.28;6185580;23;20398;-78
2023/12/03 07:06:23;;;;;;;;;;;;;;;-1.40;100.00;101651.72;6185180;23;19944;-79
2023/12/03 07:08:51;;;;;;;;;;;;;;;-1.39;100.00;101648.97;6185853;23;19919;-76
2023/12/03 07:11:26;;;;;;;;;;;;;;;-1.43;100.00;101652.78;6186128;23;19930;-76
2023/12/03 07:13:51;;;;;;;;;;;;;;;-1.38;100.00;101653.31;6184509;23;20244;-79
2023/12/03 07:16:16;;;;;;;;;;;;;;;-1.40;100.00;101663.13;6184902;23;20131;-83
2023/12/03 07:18:42;;;;;;;;;;;;;;;-1.43;100.00;101660.72;6186360;23;19939;-85
2023/12/03 07:21:08;;;;;;;;;;;;;;;-1.43;100.00;101663.34;6184632;23;19987;-82
2023/12/03 07:23:33;;;;;;;;;;;;;;;-1.41;100.00;101673.81;6178541;23;20277;-80
2023/12/03 07:25:59;;;;;;;;;;;;;;;-1.45;100.00;101680.22;6184011;23;19923;-81
2023/12/03 07:28:30;;;;;;;;;;;;;;;-1.47;100.00;101674.19;6184678;23;20377;-81
2023/12/03 07:30:55;;;;;;;;;;;;;;;-1.46;100.00;101682.03;6184994;23;20234;-81
2023/12/03 07:33:23;;;;;;;;;;;;;;;-1.48;100.00;101683.06;6183537;23;19912;-82
2023/12/03 07:35:48;;;;;;;;;;;;;;;-1.64;100.00;101680.56;6182753;23;19923;-81
2023/12/03 07:38:16;;;;;;;;;;;;;;;-1.67;100.00;101686.84;6183978;23;19916;-81
2023/12/03 07:40:44;;;;;;;;;;;;;;;-1.75;100.00;101695.25;6185277;23;19912;-81
2023/12/03 07:43:10;;;;;;;;;;;;;;;-1.86;100.00;101695.94;6184461;23;19974;-82
2023/12/03 07:45:38;;;;;;;;;;;;;;;-1.81;100.00;101694.78;6186907;23;19955;-82
2023/12/03 07:48:06;;;;;;;;;;;;;;;-1.75;100.00;101697.91;6186548;23;19916;-83
2023/12/03 07:56:33;;;;;;;;;;;;;;;-1.92;100.00;101698.97;6186242;23;20026;-82
2023/12/03 07:58:58;;;;;;;;;;;;;;;-1.84;100.00;101707.22;6184220;23;19924;-82
2023/12/03 08:01:25;;;;;;;;;;;;;;;-1.79;100.00;101709.63;6185081;23;19920;-82
2023/12/03 08:03:53;;;;;;;;;;;;;;;-1.74;100.00;101723.34;6183608;23;19963;-82
2023/12/03 08:06:22;;;;;;;;;;;;;;;-1.73;100.00;101719.78;6183149;23;19968;-79
2023/12/03 08:08:57;;;;;;;;;;;;;;;-1.65;100.00;101724.56;6184398;23;19995;-79
2023/12/03 08:11:22;;;;;;;;;;;;;;;-1.62;100.00;101718.28;6184978;22;19984;-80
2023/12/03 08:14:03;;;;;;;;;;;;;;;-1.60;100.00;101711.94;6182400;23;20326;-80
2023/12/03 08:16:59;;;;;;;;;;;;;;;-1.68;100.00;101717.69;6187526;23;19967;-81
2023/12/03 08:19:25;;;;;;;;;;;;;;;-1.59;100.00;101711.00;6183009;23;19919;-79
2023/12/03 08:21:59;;;;;;;;;;;;;;;-1.55;100.00;101709.88;6187101;23;19912;-80
2023/12/03 08:29:57;;;;;;;;;;;;;;;-1.43;100.00;101708.25;6182702;22;19918;-78
2023/12/03 08:32:35;;;;;;;;;;;;;;;-1.34;100.00;101701.53;6182361;23;19920;-80
2023/12/03 08:37:54;;;;;;;;;;;;;;;-1.13;100.00;101688.72;6090951;23;20341;-80
2023/12/03 08:40:35;;;;;;;;;;;;;;;-1.14;100.00;101687.03;6091107;23;19964;-79
2023/12/03 08:43:03;;;;;;;;;;;;;;;-1.11;100.00;101683.34;6042066;23;19994;-79
2023/12/03 08:45:29;;;;;;;;;;;;;;;-1.11;100.00;101686.84;6121346;23;19913;-79
2023/12/03 08:48:09;;;;;;;;;;;;;;;-1.07;100.00;101695.41;6124071;23;19964;-79
2023/12/03 08:53:37;;;;;;;;;;;;;;;-1.04;100.00;101702.28;6120784;23;20005;-78
2023/12/03 08:56:02;;;;;;;;;;;;;;;-1.01;100.00;101704.72;6164855;23;19943;-78
2023/12/03 08:58:27;;;;;;;;;;;;;;;-0.98;100.00;101699.25;6178154;23;19908;-78
2023/12/03 09:00:59;;;;;;;;;;;;;;;-1.00;100.00;101711.69;6183850;23;20422;-79
2023/12/03 09:03:24;;;;;;;;;;;;;;;-1.07;100.00;101711.25;6183794;23;19924;-78
2023/12/03 09:05:49;;;;;;;;;;;;;;;-0.93;100.00;101720.94;6183093;23;20279;-78
2023/12/03 09:08:14;;;;;;;;;;;;;;;-0.88;100.00;101718.81;6189965;23;19932;-78
2023/12/03 09:10:39;;;;;;;;;;;;;;;-0.85;100.00;101723.09;6189482;23;19917;-78
2023/12/03 09:13:08;;;;;;;;;;;;;;;-0.86;100.00;101729.31;6188261;23;19971;-79
2023/12/03 09:15:33;;;;;;;;;;;;;;;-0.79;100.00;101731.44;6191240;23;20210;-78
2023/12/03 09:17:59;;;;;;;;;;;;;;;-0.74;100.00;101732.94;6189836;23;20380;-79
2023/12/03 09:20:24;;;;;;;;;;;;;;;-0.68;100.00;101733.41;6182773;23;20246;-78
2023/12/03 09:22:49;;;;;;;;;;;;;;;-0.64;100.00;101718.16;6185887;23;20384;-78
2023/12/03 09:25:15;;;;;;;;;;;;;;;-0.74;100.00;101719.72;6181675;23;19912;-77
2023/12/03 09:27:49;;;;;;;;;;;;;;;-0.64;100.00;101734.03;6178569;22;19921;-77
2023/12/03 09:30:23;;;;;;;;;;;;;;;-0.68;100.00;101722.81;6183988;23;19954;-78
2023/12/03 09:32:58;;;;;;;;;;;;;;;-0.64;100.00;101739.31;6157764;23;19998;-77
2023/12/03 09:35:24;;;;;;;;;;;;;;;-0.71;100.00;101738.03;6183281;23;20283;-78
2023/12/03 09:37:55;;;;;;;;;;;;;;;-0.66;100.00;101736.78;6184696;23;19912;-77
2023/12/03 09:40:23;;;;;;;;;;;;;;;-0.56;100.00;101739.66;6184488;23;19948;-77
2023/12/03 09:42:52;;;;;;;;;;;;;;;-0.48;100.00;101739.16;6181077;23;20023;-77
2023/12/03 09:45:19;;;;;;;;;;;;;;;-0.46;100.00;101737.25;6184233;23;19912;-77
2023/12/03 09:47:46;;;;;;;;;;;;;;;-0.44;100.00;101734.50;6184466;23;19917;-77
2023/12/03 09:50:13;;;;;;;;;;;;;;;-0.41;99.56;101727.19;6182443;23;19939;-77
2023/12/03 09:52:39;;;;;;;;;;;;;;;-0.40;100.00;101730.72;6184500;23;19912;-77
2023/12/03 09:55:04;;;;;;;;;;;;;;;-0.31;99.14;101740.66;6183317;23;19927;-77
2023/12/03 09:57:30;;;;;;;;;;;;;;;-0.28;98.33;101737.81;6180548;23;19912;-77
2023/12/03 10:00:00;;;;;;;;;;;;;;;-0.21;97.29;101735.59;6183596;23;20181;-77
2023/12/03 10:02:28;;;;;;;;;;;;;;;-0.20;97.86;101743.44;6183763;23;19920;-77
2023/12/03 10:04:53;;;;;;;;;;;;;;;-0.16;96.77;101747.53;6181486;23;19919;-78
2023/12/03 10:07:19;;;;;;;;;;;;;;;-0.09;96.42;101749.78;6183894;23;19912;-78
2023/12/03 10:09:57;;;;;;;;;;;;;;;-0.08;95.85;101752.31;6167270;23;19990;-77
2023/12/03 10:12:33;;;;;;;;;;;;;;;-0.03;96.25;101746.72;6181984;23;19912;-77
2023/12/03 10:14:59;;;;;;;;;;;;;;;0.22;94.75;101747.66;6182942;23;19936;-77
2023/12/03 10:17:30;;;;;;;;;;;;;;;0.37;93.00;101745.75;6183794;23;20245;-77
2023/12/03 10:20:15;;;;;;;;;;;;;;;0.53;91.32;101750.81;6183028;23;20344;-77
2023/12/03 10:22:40;;;;;;;;;;;;;;;0.47;90.93;101736.19;6181907;23;19955;-77
2023/12/03 10:25:06;;;;;;;;;;;;;;;0.63;91.09;101730.66;6182900;23;19912;-78
2023/12/03 10:27:31;;;;;;;;;;;;;;;0.83;90.03;101725.72;6181748;23;19920;-77
2023/12/03 10:29:56;;;;;;;;;;;;;;;0.91;88.10;101728.66;6182498;23;20424;-77
2023/12/03 10:32:22;;;;;;;;;;;;;;;0.90;86.87;101726.94;6182779;23;19920;-77
2023/12/03 10:34:48;;;;;;;;;;;;;;;0.82;88.05;101718.72;6184032;23;20313;-76
2023/12/03 10:37:13;;;;;;;;;;;;;;;0.80;88.53;101720.63;6183847;23;20325;-78
2023/12/03 10:39:38;;;;;;;;;;;;;;;0.90;88.71;101717.22;6183083;23;19915;-77
2023/12/03 10:42:04;;;;;;;;;;;;;;;0.89;86.59;101722.59;6181157;23;20578;-77
2023/12/03 10:44:29;;;;;;;;;;;;;;;0.86;86.47;101714.91;6183000;23;19966;-77
2023/12/03 10:46:57;;;;;;;;;;;;;;;0.94;86.32;101712.53;6181285;23;19998;-77
2023/12/03 10:49:23;;;;;;;;;;;;;;;0.91;85.93;101707.44;6182501;23;19916;-77
2023/12/03 10:51:48;;;;;;;;;;;;;;;0.87;85.37;101716.59;6182807;23;19917;-76
2023/12/03 10:54:14;;;;;;;;;;;;;;;0.84;85.74;101717.66;6184199;23;19974;-76
2023/12/03 10:56:43;;;;;;;;;;;;;;;0.86;86.29;101704.28;6183822;23;20237;-77
2023/12/03 10:59:09;;;;;;;;;;;;;;;0.89;86.13;101709.34;6181470;23;20740;-78
2023/12/03 11:01:35;;;;;;;;;;;;;;;0.90;86.10;101711.91;6182754;23;19966;-76
2023/12/03 11:04:02;;;;;;;;;;;;;;;0.91;85.89;101710.09;6188329;23;19951;-77
2023/12/03 11:06:28;;;;;;;;;;;;;;;0.98;86.04;101706.03;6191162;23;19995;-78
2023/12/03 11:08:54;;;;;;;;;;;;;;;1.00;85.46;101706.78;6184328;23;19931;-77
2023/12/03 11:11:20;;;;;;;;;;;;;;;1.11;84.42;101694.53;6180233;23;19963;-77
2023/12/03 11:13:46;;;;;;;;;;;;;;;1.14;84.26;101704.91;6183054;23;19909;-77
2023/12/03 11:16:11;;;;;;;;;;;;;;;1.21;84.54;101706.16;6182286;23;19920;-77
2023/12/03 11:18:37;;;;;;;;;;;;;;;1.35;83.65;101698.00;6183792;23;19979;-77
2023/12/03 11:21:10;;;;;;;;;;;;;;;1.47;84.74;101695.38;6182397;23;20071;-77
2023/12/03 11:23:57;;;;;;;;;;;;;;;1.51;82.00;101691.53;6184481;23;19912;-77
2023/12/03 11:26:23;;;;;;;;;;;;;;;1.38;82.57;101688.94;6183092;23;20263;-78
2023/12/03 11:28:50;;;;;;;;;;;;;;;1.45;83.01;101692.84;6181541;23;19939;-77
2023/12/03 11:31:18;;;;;;;;;;;;;;;1.61;82.35;101687.19;6183689;23;19924;-77
2023/12/03 11:33:55;;;;;;;;;;;;;;;1.56;82.33;101678.75;6184392;22;19943;-77
2023/12/03 11:36:21;;;;;;;;;;;;;;;1.59;82.66;101690.94;6187102;23;19987;-77
2023/12/03 11:38:52;;;;;;;;;;;;;;;1.61;82.92;101675.75;6185207;23;20237;-77
2023/12/03 11:41:30;;;;;;;;;;;;;;;1.58;81.93;101676.84;6187937;23;19913;-77
2023/12/03 11:43:57;;;;;;;;;;;;;;;1.57;82.38;101668.97;6187550;23;19919;-77
2023/12/03 11:46:24;;;;;;;;;;;;;;;1.83;81.68;101666.97;6182865;23;19912;-77
2023/12/03 11:48:49;;;;;;;;;;;;;;;2.08;80.26;101665.06;6181856;23;19916;-77
2023/12/03 11:51:14;;;;;;;;;;;;;;;2.55;77.24;101649.78;6181677;23;19916;-77
2023/12/03 11:53:52;;;;;;;;;;;;;;;2.68;77.13;101662.06;6182903;23;19923;-77
2023/12/03 11:56:23;;;;;;;;;;;;;;;2.86;75.98;101665.03;6182050;23;20003;-77
2023/12/03 11:58:50;;;;;;;;;;;;;;;3.19;73.75;101648.06;6184357;23;19912;-77
2023/12/03 12:01:15;;;;;;;;;;;;;;;3.71;73.37;101643.78;6201384;23;19943;-77
2023/12/03 12:03:41;;;;;;;;;;;;;;;4.40;69.93;101651.06;6194466;23;19916;-77
2023/12/03 12:06:06;;;;;;;;;;;;;;;5.04;65.80;101647.22;6195397;23;19917;-77
2023/12/03 12:08:32;;;;;;;;;;;;;;;5.57;64.78;101649.41;6186808;23;19913;-77
2023/12/03 12:11:21;;;;;;;;;;;;;;;5.58;62.66;101647.53;5057673;28;19990;-77
2023/12/03 12:13:46;;;;;;;;;;;;;;;5.47;63.72;101653.94;5037261;28;19926;-76
2023/12/03 12:16:12;;;;;;;;;;;;;;;5.44;62.46;101649.69;5032369;28;19939;-76
2023/12/03 12:18:37;;;;;;;;;;;;;;;5.07;64.18;101652.28;5038063;28;19925;-76
2023/12/03 12:21:06;;;;;;;;;;;;;;;4.72;65.79;101648.31;5039642;28;19975;-76
2023/12/03 12:23:32;;;;;;;;;;;;;;;4.47;67.01;101653.19;5031843;28;19979;-76
2023/12/03 12:25:57;;;;;;;;;;;;;;;4.39;67.88;101654.72;5038897;28;20379;-76
2023/12/03 12:28:22;;;;;;;;;;;;;;;4.17;69.21;101650.41;5032838;28;19971;-76
2023/12/03 12:30:47;;;;;;;;;;;;;;;4.09;68.93;101643.09;5029111;28;19925;-76
2023/12/03 12:33:12;;;;;;;;;;;;;;;4.18;69.92;101640.63;5043827;28;19967;-76
2023/12/03 12:35:42;;;;;;;;;;;;;;;4.06;69.45;101632.72;5041029;28;19944;-77
2023/12/03 12:38:10;;;;;;;;;;;;;;;4.13;69.05;101637.50;5039644;28;20011;-77
2023/12/03 12:40:38;;;;;;;;;;;;;;;4.08;69.15;101632.59;5034662;28;19922;-77
2023/12/03 12:43:03;;;;;;;;;;;;;;;3.91;68.73;101632.25;5039445;28;19920;-79
2023/12/03 12:45:28;;;;;;;;;;;;;;;3.88;68.54;101639.69;5043857;28;19979;-77
2023/12/03 12:47:54;;;;;;;;;;;;;;;3.70;69.65;101637.63;5034548;28;19944;-77
2023/12/03 12:50:19;;;;;;;;;;;;;;;3.29;71.25;101636.69;5027938;28;20444;-76
2023/12/03 12:52:56;;;;;;;;;;;;;;;3.07;71.63;101640.28;5044605;28;19921;-77
2023/12/03 12:55:34;;;;;;;;;;;;;;;2.99;73.85;101638.28;5046333;28;19925;-77
2023/12/03 12:58:00;;;;;;;;;;;;;;;2.84;73.85;101630.56;5042156;28;20008;-76
2023/12/03 13:00:25;;;;;;;;;;;;;;;2.64;74.16;101628.75;5043582;28;20040;-77
2023/12/03 13:02:54;;;;;;;;;;;;;;;2.72;74.04;101634.25;5041523;28;19932;-77
2023/12/03 13:05:25;;;;;;;;;;;;;;;2.72;73.59;101637.78;5038071;28;19961;-76
2023/12/03 13:07:51;;;;;;;;;;;;;;;2.70;73.50;101634.41;5051877;28;19978;-77
2023/12/03 13:10:16;;;;;;;;;;;;;;;2.64;74.33;101626.91;5034778;28;19921;-77
2023/12/03 13:12:43;;;;;;;;;;;;;;;2.41;75.43;101623.47;5056073;28;19924;-76
2023/12/03 13:15:12;;;;;;;;;;;;;;;2.22;76.12;101624.94;5041340;28;19922;-77
2023/12/03 13:17:51;;;;;;;;;;;;;;;2.22;76.14;101629.41;5033391;28;19921;-77
2023/12/03 13:20:16;;;;;;;;;;;;;;;2.17;76.51;101623.63;5033101;28;19921;-76
2023/12/03 13:22:43;;;;;;;;;;;;;;;2.04;74.85;101621.09;5025987;28;20138;-77
2023/12/03 13:25:08;;;;;;;;;;;;;;;1.91;75.62;101622.09;5031864;28;19928;-75
2023/12/03 13:27:35;;;;;;;;;;;;;;;1.86;76.07;101618.94;5012454;28;19921;-76
2023/12/03 13:30:00;;;;;;;;;;;;;;;1.74;78.16;101611.94;5019732;28;19927;-77
2023/12/03 13:32:25;;;;;;;;;;;;;;;1.70;78.25;101613.16;5022195;28;19921;-78
2023/12/03 13:34:51;;;;;;;;;;;;;;;1.58;79.86;101610.50;5028491;28;19921;-78
2023/12/03 13:37:16;;;;;;;;;;;;;;;1.62;79.89;101606.63;5022755;28;19922;-78
2023/12/03 13:39:50;;;;;;;;;;;;;;;1.75;78.44;101600.38;5016095;28;19979;-77
2023/12/03 13:42:15;;;;;;;;;;;;;;;1.54;80.59;101606.38;5021643;28;19925;-78
2023/12/03 13:44:40;;;;;;;;;;;;;;;1.70;80.21;101602.53;5026167;28;19925;-78
2023/12/03 13:47:05;;;;;;;;;;;;;;;1.75;78.87;101595.88;5030389;28;19922;-78
2023/12/03 13:49:34;;;;;;;;;;;;;;;1.75;79.08;101590.59;5022172;28;20021;-78
2023/12/03 13:51:59;;;;;;;;;;;;;;;1.64;79.10;101585.28;5023275;28;20392;-78
2023/12/03 13:54:24;;;;;;;;;;;;;;;1.71;79.96;101577.69;5018291;28;20019;-78
2023/12/03 13:56:49;;;;;;;;;;;;;;;1.69;78.54;101579.59;5025252;28;20015;-79
2023/12/03 13:59:14;;;;;;;;;;;;;;;1.63;78.64;101581.75;5030946;28;19952;-80
2023/12/03 14:01:40;;;;;;;;;;;;;;;1.51;80.19;101572.94;5028283;28;19940;-80
2023/12/03 14:04:22;;;;;;;;;;;;;;;1.44;79.67;101571.75;5016362;28;19926;-81
2023/12/03 14:06:57;;;;;;;;;;;;;;;1.55;79.20;101568.28;5030032;28;20385;-79
2023/12/03 14:09:22;;;;;;;;;;;;;;;1.55;79.04;101572.72;5026814;28;20029;-79
2023/12/03 14:11:53;;;;;;;;;;;;;;;1.52;79.43;101563.19;5028211;28;19928;-79
2023/12/03 14:14:22;;;;;;;;;;;;;;;1.44;79.51;101561.16;5027699;28;20390;-78
2023/12/03 14:16:56;;;;;;;;;;;;;;;1.42;80.17;101562.19;5019660;28;19973;-79
2023/12/03 14:19:31;;;;;;;;;;;;;;;;;;;;;
2023/12/03 14:21:57;;;;;;;;;;;;;;;1.40;79.64;101558.84;5018766;23;19926;-79
2023/12/03 14:24:25;;;;;;;;;;;;;;;1.39;80.37;101555.34;4993804;28;20068;-79
2023/12/03 14:26:56;;;;;;;;;;;;;;;1.42;80.08;101556.91;4973274;28;19956;-79
2023/12/03 14:29:22;;;;;;;;;;;;;;;1.40;80.68;101558.84;4988829;28;19925;-78
2023/12/03 14:31:47;;;;;;;;;;;;;;;1.33;80.62;101553.16;5047061;22;20224;-79
2023/12/03 14:34:12;;;;;;;;;;;;;;;1.27;80.94;101562.44;4989893;28;20351;-79
2023/12/03 14:36:41;;;;;;;;;;;;;;;1.27;81.21;101570.38;4993129;28;20293;-77
2023/12/03 14:39:06;;;;;;;;;;;;;;;1.09;82.25;101571.81;4992291;28;20004;-81
2023/12/03 14:41:32;;;;;;;;;;;;;;;1.10;82.02;101568.19;4990759;28;20378;-78
2023/12/03 14:43:57;;;;;;;;;;;;;;;1.03;81.72;101571.31;4990765;28;19933;-77
2023/12/03 14:46:22;;;;;;;;;;;;;;;0.93;82.34;101580.91;4990409;28;19925;-78
2023/12/03 14:48:48;;;;;;;;;;;;;;;0.81;82.55;101579.19;4990683;28;19941;-77
2023/12/03 14:51:19;;;;;;;;;;;;;;;0.76;83.16;101582.19;4991560;28;19977;-78
2023/12/03 14:53:45;;;;;;;;;;;;;;;0.61;83.66;101584.19;4991767;28;20444;-78
2023/12/03 14:56:18;;;;;;;;;;;;;;;0.57;83.64;101582.72;4991295;28;19926;-78
2023/12/03 14:58:43;;;;;;;;;;;;;;;0.38;84.81;101578.75;4991491;28;19944;-78
2023/12/03 15:01:09;;;;;;;;;;;;;;;0.29;85.63;101576.78;4991140;28;20005;-78